Time;durP1;ratioP1;P1;durP2;ratioP2;P2;SDS_P1;SDS_P2;PMS_P1;PMS_P2;Temp;Humidity;BMP_temperature;BMP_pressure;BME280_temperature;BME280_humidity;BME280_pressure;Samples;Min_cycle;Max_cycle;Signal;HPM_P1;HPM_P2
2022/10/29 00:00:27;;;;;;;;;;;12.60;99.90;;;;;;2603350;54;20752;31
2022/10/29 00:03:01;;;;;;;;;;;12.70;99.90;;;;;;2603344;54;19941;31
2022/10/29 00:05:35;;;;;;;;;;;12.70;99.90;;;;;;2603181;54;19942;31
2022/10/29 00:08:09;;;;;;;;;;;12.60;99.90;;;;;;2603496;54;20720;31
2022/10/29 00:10:46;;;;;;;;;;;12.60;99.90;;;;;;2603281;54;20720;31
2022/10/29 00:13:20;;;;;;;;;;;12.60;99.90;;;;;;2603220;54;19941;31
2022/10/29 00:15:55;;;;;;;;;;;12.60;99.90;;;;;;2603259;54;19941;31
2022/10/29 00:18:29;;;;;;;;;;;12.60;99.90;;;;;;2602469;54;19943;31
2022/10/29 00:21:03;;;;;;;;;;;12.60;99.90;;;;;;2621788;47;19935;31
2022/10/29 00:23:37;;;;;;;;;;;12.60;99.90;;;;;;2603078;54;20765;31
2022/10/29 00:26:13;;;;;;;;;;;12.60;99.90;;;;;;2603259;54;19946;31
2022/10/29 00:28:48;;;;;;;;;;;12.60;99.90;;;;;;2621806;47;19935;31
2022/10/29 00:31:23;;;;;;;;;;;12.60;99.90;;;;;;2603273;54;20021;31
2022/10/29 00:33:57;;;;;;;;;;;12.50;99.90;;;;;;2621746;47;19946;31
2022/10/29 00:36:31;;;;;;;;;;;12.50;99.90;;;;;;2603231;54;19989;31
2022/10/29 00:39:05;;;;;;;;;;;12.50;99.90;;;;;;2603215;54;20698;31
2022/10/29 00:41:41;;;;;;;;;;;12.50;99.90;;;;;;2613568;47;19942;31
2022/10/29 00:44:26;;;;;;;;;;;12.50;99.90;;;;;;2603427;54;19941;31
2022/10/29 00:47:01;;;;;;;;;;;12.40;99.90;;;;;;2603070;54;20693;31
2022/10/29 00:49:35;;;;;;;;;;;12.40;99.90;;;;;;2603267;54;19934;31
2022/10/29 00:52:09;;;;;;;;;;;12.40;99.90;;;;;;2622242;47;20022;31
2022/10/29 00:54:43;;;;;;;;;;;12.40;99.90;;;;;;2622931;46;19957;31
2022/10/29 00:57:20;;;;;;;;;;;12.40;99.90;;;;;;2604065;54;19934;31
2022/10/29 00:59:54;;;;;;;;;;;12.40;99.90;;;;;;2603976;54;19943;31
2022/10/29 01:02:28;;;;;;;;;;;12.40;99.90;;;;;;2622601;46;19942;31
2022/10/29 01:05:01;;;;;;;;;;;12.40;99.90;;;;;;2604010;54;20721;31
2022/10/29 01:07:36;;;;;;;;;;;12.40;99.90;;;;;;2603678;54;20791;31
2022/10/29 01:10:10;;;;;;;;;;;12.40;99.90;;;;;;2622473;46;19938;31
2022/10/29 01:12:57;;;;;;;;;;;12.40;99.90;;;;;;2604019;54;19935;31
2022/10/29 01:15:33;;;;;;;;;;;12.50;99.90;;;;;;2622432;46;20057;31
2022/10/29 01:18:09;;;;;;;;;;;12.50;99.90;;;;;;2618206;46;19934;31
2022/10/29 01:20:53;;;;;;;;;;;12.50;99.90;;;;;;2721561;39;20911;31
2022/10/29 01:23:34;;;;;;;;;;;12.50;99.90;;;;;;2603902;54;19934;31
2022/10/29 01:26:13;;;;;;;;;;;12.50;99.90;;;;;;2604033;54;19935;31
2022/10/29 01:28:55;;;;;;;;;;;12.50;99.90;;;;;;2603968;54;19941;31
2022/10/29 01:31:33;;;;;;;;;;;12.50;99.90;;;;;;2622435;46;20722;31
2022/10/29 01:34:09;;;;;;;;;;;12.50;99.90;;;;;;2604007;54;19935;31
2022/10/29 01:36:43;;;;;;;;;;;12.50;99.90;;;;;;2613649;46;19939;31
2022/10/29 01:39:19;;;;;;;;;;;12.50;99.90;;;;;;2603770;54;19934;31
2022/10/29 01:41:53;;;;;;;;;;;12.50;99.90;;;;;;2603807;54;19989;31
2022/10/29 01:44:30;;;;;;;;;;;12.50;99.90;;;;;;2622367;46;19934;31
2022/10/29 01:47:06;;;;;;;;;;;12.50;99.90;;;;;;2603828;54;20021;31
2022/10/29 01:49:39;;;;;;;;;;;12.50;99.90;;;;;;2604035;54;19940;31
2022/10/29 01:52:13;;;;;;;;;;;12.50;99.90;;;;;;2603935;54;19934;31
2022/10/29 01:54:47;;;;;;;;;;;12.50;99.90;;;;;;2603857;54;20767;31
2022/10/29 01:57:26;;;;;;;;;;;12.50;99.90;;;;;;2622289;46;19942;31
2022/10/29 02:00:00;;;;;;;;;;;12.50;99.90;;;;;;2603788;54;19935;31
2022/10/29 02:02:50;;;;;;;;;;;12.40;99.90;;;;;;2603635;54;19953;31
2022/10/29 02:05:28;;;;;;;;;;;12.50;99.90;;;;;;2622346;46;20087;31
2022/10/29 02:08:04;;;;;;;;;;;12.50;99.90;;;;;;2603736;54;20748;31
2022/10/29 02:10:39;;;;;;;;;;;12.50;99.90;;;;;;2604060;54;19942;31
2022/10/29 02:13:12;;;;;;;;;;;12.50;99.90;;;;;;2603544;54;20815;31
2022/10/29 02:15:47;;;;;;;;;;;12.50;99.90;;;;;;2603441;54;19998;31
2022/10/29 02:18:24;;;;;;;;;;;12.50;99.90;;;;;;2603745;54;20756;31
2022/10/29 02:20:58;;;;;;;;;;;12.50;99.90;;;;;;2603786;54;19938;31
2022/10/29 02:23:32;;;;;;;;;;;12.50;99.90;;;;;;2603591;54;19965;31
2022/10/29 02:26:06;;;;;;;;;;;12.50;99.90;;;;;;2603813;54;20744;31
2022/10/29 02:28:40;;;;;;;;;;;12.50;99.90;;;;;;2603557;54;19941;31
2022/10/29 02:31:14;;;;;;;;;;;12.50;99.90;;;;;;2603870;54;19988;31
2022/10/29 02:33:50;;;;;;;;;;;12.40;99.90;;;;;;2603691;54;20812;31
2022/10/29 02:36:24;;;;;;;;;;;12.40;99.90;;;;;;2603672;54;20791;31
2022/10/29 02:38:58;;;;;;;;;;;12.40;99.90;;;;;;2603608;54;19935;31
2022/10/29 02:41:32;;;;;;;;;;;12.40;99.90;;;;;;2622271;46;19943;31
2022/10/29 02:44:06;;;;;;;;;;;12.40;99.90;;;;;;2603689;54;19935;31
2022/10/29 02:46:41;;;;;;;;;;;12.30;99.90;;;;;;2622026;46;19934;31
2022/10/29 02:49:18;;;;;;;;;;;12.30;99.90;;;;;;2622184;46;20013;31
2022/10/29 02:51:52;;;;;;;;;;;12.30;99.90;;;;;;2613390;46;20745;31
2022/10/29 02:54:26;;;;;;;;;;;12.30;99.90;;;;;;2622056;46;19941;31
2022/10/29 02:57:00;;;;;;;;;;;12.30;99.90;;;;;;2603521;54;20758;31
2022/10/29 02:59:34;;;;;;;;;;;12.30;99.90;;;;;;2603343;54;19934;31
2022/10/29 03:02:08;;;;;;;;;;;12.30;99.90;;;;;;2603489;54;20792;31
2022/10/29 03:04:45;;;;;;;;;;;12.40;99.90;;;;;;2622330;46;19942;31
2022/10/29 03:07:19;;;;;;;;;;;12.40;99.90;;;;;;2603648;54;19935;31
2022/10/29 03:09:59;;;;;;;;;;;12.40;99.90;;;;;;2603705;54;19966;31
2022/10/29 03:12:33;;;;;;;;;;;12.40;99.90;;;;;;2603433;54;20799;31
2022/10/29 03:15:08;;;;;;;;;;;12.40;99.90;;;;;;2622154;46;20795;31
2022/10/29 03:17:42;;;;;;;;;;;12.40;99.90;;;;;;2603455;54;20755;31
2022/10/29 03:20:19;;;;;;;;;;;12.40;99.90;;;;;;2603319;54;19942;31
2022/10/29 03:22:53;;;;;;;;;;;12.40;99.90;;;;;;2603571;54;19935;31
2022/10/29 03:25:30;;;;;;;;;;;12.40;99.90;;;;;;2603311;54;19946;31
2022/10/29 03:28:03;;;;;;;;;;;12.40;99.90;;;;;;2621733;46;19942;31
2022/10/29 03:30:35;;;;;;;;;;;12.40;99.90;;;;;;2721123;39;20915;31
2022/10/29 03:33:09;;;;;;;;;;;12.30;99.90;;;;;;2622154;46;19940;31
2022/10/29 03:35:45;;;;;;;;;;;12.30;99.90;;;;;;2622213;46;19956;31
2022/10/29 03:38:18;;;;;;;;;;;12.30;99.90;;;;;;2603482;54;20781;31
2022/10/29 03:40:52;;;;;;;;;;;12.20;99.90;;;;;;2603443;54;19994;31
2022/10/29 03:43:27;;;;;;;;;;;12.20;99.90;;;;;;2603485;54;19942;31
2022/10/29 03:46:00;;;;;;;;;;;12.20;99.90;;;;;;2621373;46;19942;31
2022/10/29 03:48:34;;;;;;;;;;;12.20;99.90;;;;;;2603233;54;20826;31
2022/10/29 03:51:11;;;;;;;;;;;12.20;99.90;;;;;;2603272;54;19942;31
2022/10/29 03:53:45;;;;;;;;;;;12.20;99.90;;;;;;2603488;54;19946;31
2022/10/29 03:56:19;;;;;;;;;;;12.10;99.90;;;;;;2622094;46;19941;31
2022/10/29 03:58:53;;;;;;;;;;;12.10;99.90;;;;;;2603312;54;20794;31
2022/10/29 04:01:27;;;;;;;;;;;12.00;99.90;;;;;;2603224;54;19935;31
2022/10/29 04:04:01;;;;;;;;;;;12.00;99.90;;;;;;2621840;46;19957;31
2022/10/29 04:06:38;;;;;;;;;;;12.00;99.90;;;;;;2621730;46;19939;31
2022/10/29 04:09:10;;;;;;;;;;;11.90;99.90;;;;;;2701998;39;20288;31
2022/10/29 04:11:44;;;;;;;;;;;11.90;99.90;;;;;;2622010;46;19941;31
2022/10/29 04:14:18;;;;;;;;;;;11.90;99.90;;;;;;2701787;39;21384;31
2022/10/29 04:16:52;;;;;;;;;;;11.80;99.90;;;;;;2603438;54;20761;31
2022/10/29 04:19:26;;;;;;;;;;;11.80;99.90;;;;;;2621583;47;19993;31
2022/10/29 04:22:03;;;;;;;;;;;11.70;99.90;;;;;;2603268;54;19941;31
2022/10/29 04:24:57;;;;;;;;;;;11.80;99.90;;;;;;2621761;47;19939;31
2022/10/29 04:27:51;;;;;;;;;;;11.70;99.90;;;;;;2603996;54;20806;31
2022/10/29 04:30:44;;;;;;;;;;;11.60;99.90;;;;;;2603831;54;20829;31
2022/10/29 04:33:17;;;;;;;;;;;11.60;99.90;;;;;;2604346;54;20755;31
2022/10/29 04:35:54;;;;;;;;;;;11.50;99.90;;;;;;2702587;39;21390;31
2022/10/29 04:38:31;;;;;;;;;;;11.50;99.90;;;;;;2604127;54;20305;31
2022/10/29 04:41:09;;;;;;;;;;;11.40;99.90;;;;;;2604149;54;19934;31
2022/10/29 04:43:41;;;;;;;;;;;11.40;99.90;;;;;;2604153;54;19962;31
2022/10/29 04:46:15;;;;;;;;;;;11.30;99.90;;;;;;2604324;54;19934;31
2022/10/29 04:48:49;;;;;;;;;;;11.30;99.90;;;;;;2622395;46;19938;31
2022/10/29 04:51:23;;;;;;;;;;;11.30;99.90;;;;;;2622680;46;19934;31
2022/10/29 04:54:00;;;;;;;;;;;11.20;99.90;;;;;;2603792;54;19942;31
2022/10/29 04:56:34;;;;;;;;;;;11.10;99.90;;;;;;2622479;46;19938;31
2022/10/29 04:59:08;;;;;;;;;;;11.10;99.90;;;;;;2604044;54;20005;31
2022/10/29 05:01:42;;;;;;;;;;;11.10;99.90;;;;;;2622516;46;20821;31
2022/10/29 05:04:16;;;;;;;;;;;11.10;99.90;;;;;;2622585;46;20392;31
2022/10/29 05:06:50;;;;;;;;;;;11.10;99.90;;;;;;2622643;46;20755;31
2022/10/29 05:09:27;;;;;;;;;;;11.10;99.90;;;;;;2622615;46;19945;31
2022/10/29 05:11:59;;;;;;;;;;;11.10;99.90;;;;;;2603871;54;19935;31
2022/10/29 05:14:33;;;;;;;;;;;11.10;99.90;;;;;;2603999;54;19934;31
2022/10/29 05:17:07;;;;;;;;;;;11.00;99.90;;;;;;2622517;46;19960;31
2022/10/29 05:19:39;;;;;;;;;;;11.00;99.90;;;;;;2720738;39;22248;31
2022/10/29 05:22:13;;;;;;;;;;;11.00;99.90;;;;;;2604023;54;19934;31
2022/10/29 05:24:50;;;;;;;;;;;10.90;99.90;;;;;;2603275;54;20762;31
2022/10/29 05:27:24;;;;;;;;;;;10.90;99.90;;;;;;2603745;54;20867;31
2022/10/29 05:29:58;;;;;;;;;;;10.90;99.90;;;;;;2603767;54;20772;31
2022/10/29 05:32:35;;;;;;;;;;;10.90;99.90;;;;;;2603869;54;19969;31
2022/10/29 05:35:09;;;;;;;;;;;10.90;99.90;;;;;;2622690;46;20803;31
2022/10/29 05:37:43;;;;;;;;;;;10.80;99.90;;;;;;2604091;54;20747;31
2022/10/29 05:40:19;;;;;;;;;;;10.80;99.90;;;;;;2603794;54;19935;31
2022/10/29 05:42:52;;;;;;;;;;;10.80;99.90;;;;;;2603666;54;19934;31
2022/10/29 05:45:26;;;;;;;;;;;10.70;99.90;;;;;;2605141;46;19941;31
2022/10/29 05:48:00;;;;;;;;;;;10.70;99.90;;;;;;2603775;54;20025;31
2022/10/29 05:50:34;;;;;;;;;;;10.70;99.90;;;;;;2603917;54;19934;31
2022/10/29 05:53:09;;;;;;;;;;;10.70;99.90;;;;;;2603852;54;20062;31
2022/10/29 05:55:47;;;;;;;;;;;10.70;99.90;;;;;;2603907;54;20790;31
2022/10/29 05:58:21;;;;;;;;;;;10.80;99.90;;;;;;2603586;54;19961;31
2022/10/29 06:00:54;;;;;;;;;;;10.80;99.90;;;;;;2603556;54;19934;31
2022/10/29 06:03:29;;;;;;;;;;;10.80;99.90;;;;;;2603568;54;19941;31
2022/10/29 06:06:05;;;;;;;;;;;10.90;99.90;;;;;;2604045;54;19934;31
2022/10/29 06:08:40;;;;;;;;;;;11.00;99.90;;;;;;2603861;54;19990;31
2022/10/29 06:11:17;;;;;;;;;;;11.20;99.90;;;;;;2603606;54;20748;31
2022/10/29 06:13:51;;;;;;;;;;;11.40;99.90;;;;;;2603727;54;19981;31
2022/10/29 06:16:25;;;;;;;;;;;11.50;99.90;;;;;;2603822;54;19960;31
2022/10/29 06:19:05;;;;;;;;;;;11.60;99.90;;;;;;2604076;46;20806;31
2022/10/29 06:21:39;;;;;;;;;;;11.60;99.90;;;;;;2604029;54;19938;31
2022/10/29 06:24:13;;;;;;;;;;;11.70;99.90;;;;;;2604786;46;19934;31
2022/10/29 06:26:50;;;;;;;;;;;11.80;99.90;;;;;;2622444;46;20751;31
2022/10/29 06:29:22;;;;;;;;;;;11.80;99.90;;;;;;2617897;46;19935;31
2022/10/29 06:31:56;;;;;;;;;;;11.90;99.90;;;;;;2603689;54;20771;31
2022/10/29 06:34:30;;;;;;;;;;;12.00;99.90;;;;;;2603729;54;19934;31
2022/10/29 06:37:04;;;;;;;;;;;12.00;99.90;;;;;;2603786;54;19946;31
2022/10/29 06:39:38;;;;;;;;;;;12.10;99.90;;;;;;2603779;54;19942;31
2022/10/29 06:42:15;;;;;;;;;;;12.30;99.90;;;;;;2603722;54;19958;31
2022/10/29 06:44:49;;;;;;;;;;;12.40;99.90;;;;;;2622171;46;19946;31
2022/10/29 06:47:23;;;;;;;;;;;12.50;99.90;;;;;;2604753;46;20774;31
2022/10/29 06:49:57;;;;;;;;;;;12.50;99.90;;;;;;2621969;47;20844;31
2022/10/29 06:52:32;;;;;;;;;;;12.60;99.90;;;;;;2603418;54;19934;31
2022/10/29 06:55:07;;;;;;;;;;;12.70;99.90;;;;;;2604720;46;20775;31
2022/10/29 06:57:44;;;;;;;;;;;12.70;99.90;;;;;;2603612;54;20766;31
2022/10/29 07:00:16;;;;;;;;;;;12.80;99.90;;;;;;2622169;46;19946;31
2022/10/29 07:02:50;;;;;;;;;;;12.90;99.90;;;;;;2603486;54;20838;31
2022/10/29 07:05:24;;;;;;;;;;;13.00;99.90;;;;;;2608987;46;19981;31
2022/10/29 07:07:58;;;;;;;;;;;13.20;99.90;;;;;;2603739;54;20811;31
2022/10/29 07:10:32;;;;;;;;;;;13.50;99.90;;;;;;2603344;54;19942;31
2022/10/29 07:13:09;;;;;;;;;;;13.90;99.90;;;;;;2604560;46;19963;31
2022/10/29 07:15:42;;;;;;;;;;;14.30;99.90;;;;;;2603527;54;20681;31
2022/10/29 07:18:16;;;;;;;;;;;14.70;99.90;;;;;;2603310;54;19934;31
2022/10/29 07:20:50;;;;;;;;;;;15.20;99.90;;;;;;2622075;46;20773;31
2022/10/29 07:23:24;;;;;;;;;;;15.70;99.90;;;;;;2603630;54;19934;31
2022/10/29 07:25:58;;;;;;;;;;;16.10;99.90;;;;;;2706520;39;20213;31
2022/10/29 07:28:36;;;;;;;;;;;16.30;99.90;;;;;;2603882;47;20762;31
2022/10/29 07:31:07;;;;;;;;;;;16.40;99.90;;;;;;2603288;54;19942;31
2022/10/29 07:33:41;;;;;;;;;;;16.40;99.90;;;;;;2603358;54;20777;31
2022/10/29 07:36:15;;;;;;;;;;;16.30;99.90;;;;;;2603379;54;19985;31
2022/10/29 07:38:49;;;;;;;;;;;16.30;99.90;;;;;;2621993;46;20849;31
2022/10/29 07:41:23;;;;;;;;;;;16.30;99.90;;;;;;2606286;46;19941;31
2022/10/29 07:43:58;;;;;;;;;;;16.20;99.90;;;;;;2603562;54;19997;31
2022/10/29 07:46:30;;;;;;;;;;;16.20;99.90;;;;;;2603759;46;20000;31
2022/10/29 07:49:05;;;;;;;;;;;16.20;99.90;;;;;;2602931;54;19935;31
2022/10/29 07:51:39;;;;;;;;;;;16.10;99.90;;;;;;2621880;46;20018;31
2022/10/29 07:54:13;;;;;;;;;;;16.10;99.90;;;;;;2603598;54;19934;31
2022/10/29 07:56:47;;;;;;;;;;;16.10;99.90;;;;;;2603570;54;20725;31
2022/10/29 07:59:24;;;;;;;;;;;16.20;99.90;;;;;;2621635;46;19989;31
2022/10/29 08:01:56;;;;;;;;;;;16.30;99.90;;;;;;2604028;47;19939;31
2022/10/29 08:04:28;;;;;;;;;;;16.60;99.90;;;;;;2605038;54;19937;31
2022/10/29 08:07:02;;;;;;;;;;;17.00;99.90;;;;;;2611485;46;20834;31
2022/10/29 08:09:36;;;;;;;;;;;17.30;99.90;;;;;;2603218;54;19961;31
2022/10/29 08:12:08;;;;;;;;;;;17.40;99.90;;;;;;2621725;46;20005;31
2022/10/29 08:14:44;;;;;;;;;;;17.40;99.90;;;;;;2603547;54;19986;31
2022/10/29 08:17:18;;;;;;;;;;;17.40;99.90;;;;;;2621713;47;19942;31
2022/10/29 08:19:52;;;;;;;;;;;17.40;99.90;;;;;;2609515;47;19958;31
2022/10/29 08:22:26;;;;;;;;;;;17.30;99.90;;;;;;2603349;54;19942;31
2022/10/29 08:25:00;;;;;;;;;;;17.30;99.90;;;;;;2608794;47;19934;31
2022/10/29 08:27:34;;;;;;;;;;;17.30;99.90;;;;;;2608059;47;19950;31
2022/10/29 08:30:12;;;;;;;;;;;17.40;99.90;;;;;;2621807;47;20812;31
2022/10/29 08:32:46;;;;;;;;;;;17.40;99.90;;;;;;2602320;54;21283;31
2022/10/29 08:35:21;;;;;;;;;;;17.50;99.90;;;;;;2604319;47;20409;31
2022/10/29 08:37:53;;;;;;;;;;;17.60;99.90;;;;;;2603159;54;19941;31
2022/10/29 08:40:30;;;;;;;;;;;17.70;99.90;;;;;;2603543;54;20755;31
2022/10/29 08:43:12;;;;;;;;;;;17.90;99.90;;;;;;2602812;54;19943;31
2022/10/29 08:45:49;;;;;;;;;;;18.10;99.90;;;;;;2604472;47;19950;31
2022/10/29 08:48:28;;;;;;;;;;;18.50;99.90;;;;;;2603265;54;20710;31
2022/10/29 08:51:03;;;;;;;;;;;18.90;99.90;;;;;;2621783;47;19942;31
2022/10/29 08:53:37;;;;;;;;;;;19.30;99.90;;;;;;2603200;54;19935;31
2022/10/29 08:56:13;;;;;;;;;;;19.40;99.90;;;;;;2605739;54;19960;31
2022/10/29 08:58:46;;;;;;;;;;;19.40;99.90;;;;;;2701887;39;20294;31
2022/10/29 09:01:21;;;;;;;;;;;19.40;99.90;;;;;;2701572;39;20378;31
2022/10/29 09:03:53;;;;;;;;;;;19.40;99.90;;;;;;2608326;47;21493;31
2022/10/29 09:06:29;;;;;;;;;;;19.60;99.90;;;;;;2604124;47;19935;31
2022/10/29 09:09:07;;;;;;;;;;;19.80;99.90;;;;;;2603233;54;20698;31
2022/10/29 09:11:47;;;;;;;;;;;19.90;99.90;;;;;;2603504;54;19993;31
2022/10/29 09:14:27;;;;;;;;;;;20.20;99.90;;;;;;2604551;46;20829;31
2022/10/29 09:17:02;;;;;;;;;;;20.30;99.90;;;;;;2703139;39;20271;31
2022/10/29 09:19:37;;;;;;;;;;;20.70;99.90;;;;;;2603833;54;19930;31
2022/10/29 09:22:11;;;;;;;;;;;21.00;99.90;;;;;;2603956;54;19931;31
2022/10/29 09:24:47;;;;;;;;;;;21.20;99.90;;;;;;2607312;54;19940;31
2022/10/29 09:27:19;;;;;;;;;;;21.50;99.90;;;;;;2603965;54;19931;31
2022/10/29 09:30:03;;;;;;;;;;;21.70;99.90;;;;;;2710775;39;20201;31
2022/10/29 09:32:40;;;;;;;;;;;21.80;99.90;;;;;;2629534;46;19949;31
2022/10/29 09:35:16;;;;;;;;;;;21.90;99.90;;;;;;2606163;46;20727;31
2022/10/29 09:37:48;;;;;;;;;;;22.10;99.90;;;;;;2613778;46;19931;31
2022/10/29 09:40:25;;;;;;;;;;;22.10;99.90;;;;;;2614269;54;19931;31
2022/10/29 09:42:59;;;;;;;;;;;22.30;99.90;;;;;;2613423;46;19965;31
2022/10/29 09:45:36;;;;;;;;;;;22.40;99.90;;;;;;2608434;54;19927;31
2022/10/29 09:48:15;;;;;;;;;;;22.40;99.90;;;;;;2610626;54;20731;31
2022/10/29 09:50:50;;;;;;;;;;;22.40;99.90;;;;;;2605941;54;19938;31
2022/10/29 09:53:22;;;;;;;;;;;22.40;99.90;;;;;;2608173;54;19962;31
2022/10/29 09:55:56;;;;;;;;;;;22.50;99.90;;;;;;2610943;54;19935;31
2022/10/29 09:58:30;;;;;;;;;;;22.40;99.90;;;;;;2613753;46;19942;31
2022/10/29 10:01:02;;;;;;;;;;;22.40;99.90;;;;;;2606333;46;20653;31
2022/10/29 10:03:40;;;;;;;;;;;22.30;99.90;;;;;;2604107;54;20845;31
2022/10/29 10:06:12;;;;;;;;;;;22.20;99.90;;;;;;2603742;54;19941;31
2022/10/29 10:08:59;;;;;;;;;;;22.00;99.90;;;;;;2605667;54;19931;31
2022/10/29 10:11:33;;;;;;;;;;;21.90;99.90;;;;;;2611799;54;19927;31
2022/10/29 10:14:07;;;;;;;;;;;21.80;99.90;;;;;;2603933;54;19946;31
2022/10/29 10:16:43;;;;;;;;;;;21.70;99.90;;;;;;2603848;54;20712;31
2022/10/29 10:19:27;;;;;;;;;;;21.60;99.90;;;;;;2622362;46;19942;31
2022/10/29 10:22:03;;;;;;;;;;;21.50;99.90;;;;;;2608150;54;19937;31
2022/10/29 10:24:35;;;;;;;;;;;21.40;99.90;;;;;;2603517;54;19933;31
2022/10/29 10:27:23;;;;;;;;;;;21.50;99.90;;;;;;2605560;46;19931;31
2022/10/29 10:30:12;;;;;;;;;;;21.50;99.90;;;;;;2603719;54;19942;31
2022/10/29 10:32:46;;;;;;;;;;;21.60;99.90;;;;;;2604008;54;19940;31
2022/10/29 10:35:38;;;;;;;;;;;21.70;99.90;;;;;;2607606;54;19931;31
2022/10/29 10:38:14;;;;;;;;;;;21.80;99.90;;;;;;2610219;39;20886;31
2022/10/29 10:40:45;;;;;;;;;;;21.80;99.90;;;;;;2607829;46;19930;31
2022/10/29 10:43:19;;;;;;;;;;;21.80;99.90;;;;;;2603897;54;19943;31
2022/10/29 10:45:53;;;;;;;;;;;21.90;99.90;;;;;;2608989;54;19934;31
2022/10/29 10:48:27;;;;;;;;;;;21.90;99.90;;;;;;2603776;54;19938;31
2022/10/29 10:51:28;;;;;;;;;;;21.90;99.90;;;;;;2606017;54;19937;31
2022/10/29 10:54:05;;;;;;;;;;;21.90;99.90;;;;;;2603615;47;20001;31
2022/10/29 10:56:37;;;;;;;;;;;21.90;99.90;;;;;;2702195;39;20378;31
2022/10/29 10:59:13;;;;;;;;;;;21.90;99.90;;;;;;2622340;46;19962;31
2022/10/29 11:01:48;;;;;;;;;;;21.90;99.90;;;;;;2604201;46;19941;31
2022/10/29 11:04:22;;;;;;;;;;;22.00;99.90;;;;;;2622400;46;20748;31
2022/10/29 11:06:57;;;;;;;;;;;22.00;99.90;;;;;;2608148;46;19927;31
2022/10/29 11:09:33;;;;;;;;;;;22.00;99.90;;;;;;2603613;54;20764;31
2022/10/29 11:12:07;;;;;;;;;;;22.00;99.90;;;;;;2604484;54;19934;31
2022/10/29 11:14:43;;;;;;;;;;;21.90;99.90;;;;;;2603629;54;20729;31
2022/10/29 11:17:21;;;;;;;;;;;21.90;99.90;;;;;;2603478;54;20747;31
2022/10/29 11:19:56;;;;;;;;;;;21.80;99.90;;;;;;2603684;54;20787;31
2022/10/29 11:22:31;;;;;;;;;;;21.80;99.90;;;;;;2603584;54;20819;31
2022/10/29 11:25:10;;;;;;;;;;;21.80;99.90;;;;;;2603606;54;19946;31
2022/10/29 11:27:47;;;;;;;;;;;21.80;99.90;;;;;;2604924;46;19941;31
2022/10/29 11:30:21;;;;;;;;;;;21.80;99.90;;;;;;2622232;46;19930;31
2022/10/29 11:32:57;;;;;;;;;;;21.70;99.90;;;;;;2720689;39;21488;31
2022/10/29 11:35:34;;;;;;;;;;;21.70;99.90;;;;;;2603558;54;19989;31
2022/10/29 11:38:11;;;;;;;;;;;21.60;99.90;;;;;;2603634;54;20772;31
2022/10/29 11:40:47;;;;;;;;;;;21.60;99.90;;;;;;2622170;46;20648;31
2022/10/29 11:43:21;;;;;;;;;;;21.60;99.90;;;;;;2603591;54;20725;31
2022/10/29 11:45:59;;;;;;;;;;;21.60;99.90;;;;;;2603783;54;19931;31
2022/10/29 11:48:37;;;;;;;;;;;21.50;99.90;;;;;;2702033;39;20302;31
2022/10/29 11:51:09;;;;;;;;;;;21.40;99.90;;;;;;2603614;54;20176;31
2022/10/29 11:53:56;;;;;;;;;;;21.40;99.90;;;;;;2603679;54;19939;31
2022/10/29 11:56:48;;;;;;;;;;;21.40;99.90;;;;;;2604833;46;19942;31
2022/10/29 11:59:31;;;;;;;;;;;21.30;99.90;;;;;;2603521;54;20779;31
2022/10/29 12:02:06;;;;;;;;;;;21.40;99.90;;;;;;2603445;54;19989;31
2022/10/29 12:04:39;;;;;;;;;;;21.40;99.90;;;;;;2603517;54;19930;31
2022/10/29 12:07:15;;;;;;;;;;;21.40;99.90;;;;;;2603443;54;19981;31
2022/10/29 12:10:07;;;;;;;;;;;21.40;99.90;;;;;;2603579;54;19941;31
2022/10/29 12:15:18;;;;;;;;;;;21.40;99.90;;;;;;2603524;54;19935;31
2022/10/29 12:17:54;;;;;;;;;;;21.40;99.90;;;;;;2621793;47;20017;31
2022/10/29 12:20:30;;;;;;;;;;;21.40;99.90;;;;;;2622259;47;20762;31
2022/10/29 12:23:05;;;;;;;;;;;21.40;99.90;;;;;;2621939;47;19938;31
2022/10/29 12:25:51;;;;;;;;;;;21.40;99.90;;;;;;2603456;54;20756;31
2022/10/29 12:28:27;;;;;;;;;;;21.50;99.90;;;;;;2603491;47;20714;31
2022/10/29 12:31:08;;;;;;;;;;;21.50;99.90;;;;;;2611203;54;20053;31
2022/10/29 12:33:44;;;;;;;;;;;21.50;99.90;;;;;;2603370;54;19934;31
2022/10/29 12:36:21;;;;;;;;;;;21.40;99.90;;;;;;2603383;54;19934;31
2022/10/29 12:38:54;;;;;;;;;;;21.40;99.90;;;;;;2630215;47;20824;31
2022/10/29 12:41:28;;;;;;;;;;;21.40;99.90;;;;;;2603486;54;19957;31
2022/10/29 12:44:00;;;;;;;;;;;21.30;99.90;;;;;;2603053;54;19937;31
2022/10/29 12:46:36;;;;;;;;;;;21.30;99.90;;;;;;2624377;47;21520;31
2022/10/29 12:49:09;;;;;;;;;;;21.20;99.90;;;;;;2604082;54;19941;31
2022/10/29 12:51:44;;;;;;;;;;;21.20;99.90;;;;;;2604286;54;19935;31
2022/10/29 12:54:18;;;;;;;;;;;21.20;99.90;;;;;;2609693;46;20036;31
2022/10/29 12:56:52;;;;;;;;;;;21.30;99.90;;;;;;2604234;54;20718;31
2022/10/29 12:59:33;;;;;;;;;;;21.20;99.90;;;;;;2604100;54;19935;31
2022/10/29 13:02:35;;;;;;;;;;;21.30;99.90;;;;;;2612503;39;20840;31
2022/10/29 13:05:31;;;;;;;;;;;21.30;99.90;;;;;;2603959;54;19930;31
2022/10/29 13:08:20;;;;;;;;;;;21.30;99.90;;;;;;2604017;54;19934;31
2022/10/29 13:10:57;;;;;;;;;;;21.30;99.90;;;;;;2604205;54;19930;31
2022/10/29 13:13:39;;;;;;;;;;;21.30;99.90;;;;;;2606047;54;19937;31
2022/10/29 13:16:15;;;;;;;;;;;21.30;99.90;;;;;;2603968;54;19947;31
2022/10/29 13:19:04;;;;;;;;;;;21.30;99.90;;;;;;2604376;54;19931;31
2022/10/29 13:21:51;;;;;;;;;;;21.20;99.90;;;;;;2603784;54;21296;31
2022/10/29 13:24:25;;;;;;;;;;;21.20;99.90;;;;;;2603940;54;19935;31
2022/10/29 13:27:17;;;;;;;;;;;21.20;99.90;;;;;;2612611;54;19986;31
2022/10/29 13:30:11;;;;;;;;;;;21.20;99.90;;;;;;2604212;54;19941;31
2022/10/29 13:32:47;;;;;;;;;;;21.20;99.90;;;;;;2604032;54;20768;31
2022/10/29 13:35:35;;;;;;;;;;;21.20;99.90;;;;;;2603766;54;20799;31
2022/10/29 13:38:20;;;;;;;;;;;21.20;99.90;;;;;;2622628;46;20746;31
2022/10/29 13:41:06;;;;;;;;;;;21.20;99.90;;;;;;2613392;46;19931;31
2022/10/29 13:43:40;;;;;;;;;;;21.10;99.90;;;;;;2603722;47;20013;31
2022/10/29 13:46:30;;;;;;;;;;;21.10;99.90;;;;;;2603717;54;20448;31
2022/10/29 13:49:05;;;;;;;;;;;21.10;99.90;;;;;;2605176;46;19934;31
2022/10/29 13:51:40;;;;;;;;;;;21.00;99.90;;;;;;2610073;46;20868;31
2022/10/29 13:54:15;;;;;;;;;;;21.00;99.90;;;;;;2607330;46;20805;31
2022/10/29 13:56:48;;;;;;;;;;;21.00;99.90;;;;;;2603998;54;19937;31
2022/10/29 13:59:24;;;;;;;;;;;20.90;99.90;;;;;;2604852;46;19935;31
2022/10/29 14:02:13;;;;;;;;;;;20.90;99.90;;;;;;2622326;46;19941;31
2022/10/29 14:04:50;;;;;;;;;;;20.90;99.90;;;;;;2603309;54;20827;31
2022/10/29 14:07:25;;;;;;;;;;;20.80;99.90;;;;;;2603784;54;20799;31
2022/10/29 14:10:00;;;;;;;;;;;20.80;99.90;;;;;;2603770;54;20810;31
2022/10/29 14:12:37;;;;;;;;;;;20.80;99.90;;;;;;2603722;54;20829;31
2022/10/29 14:15:10;;;;;;;;;;;20.80;99.90;;;;;;2622432;46;19930;31
2022/10/29 14:17:42;;;;;;;;;;;20.70;99.90;;;;;;2603880;54;19942;31
2022/10/29 14:20:26;;;;;;;;;;;20.70;99.90;;;;;;2604041;54;19935;31
2022/10/29 14:23:00;;;;;;;;;;;20.60;99.90;;;;;;2603642;54;19941;31
2022/10/29 14:25:35;;;;;;;;;;;20.60;99.90;;;;;;2701999;39;20353;31
2022/10/29 14:28:19;;;;;;;;;;;20.60;99.90;;;;;;2603828;54;19937;31
2022/10/29 14:31:00;;;;;;;;;;;20.60;99.90;;;;;;2603905;54;20745;31
2022/10/29 14:33:35;;;;;;;;;;;20.50;99.90;;;;;;2702141;39;20330;31
2022/10/29 14:36:14;;;;;;;;;;;20.50;99.90;;;;;;2603976;54;19934;31
2022/10/29 14:38:49;;;;;;;;;;;20.50;99.90;;;;;;2622518;46;20796;31
2022/10/29 14:41:23;;;;;;;;;;;20.40;99.90;;;;;;2603656;54;19969;31
2022/10/29 14:44:02;;;;;;;;;;;20.40;99.90;;;;;;2603780;54;20799;31
2022/10/29 14:46:34;;;;;;;;;;;20.40;99.90;;;;;;2603705;54;19937;31
2022/10/29 14:49:13;;;;;;;;;;;20.30;99.90;;;;;;2603395;54;19941;31
2022/10/29 14:51:52;;;;;;;;;;;20.30;99.90;;;;;;2604795;46;20489;31
2022/10/29 14:54:26;;;;;;;;;;;20.30;99.90;;;;;;2604698;46;20706;31
2022/10/29 14:56:59;;;;;;;;;;;20.20;99.90;;;;;;2603777;54;20377;31
2022/10/29 14:59:31;;;;;;;;;;;20.20;99.90;;;;;;2604613;46;19962;31
2022/10/29 15:02:04;;;;;;;;;;;20.10;99.90;;;;;;2603678;54;20123;31
2022/10/29 15:04:57;;;;;;;;;;;20.10;99.90;;;;;;2603649;54;19930;31
2022/10/29 15:07:41;;;;;;;;;;;20.10;99.90;;;;;;2603598;54;19986;31
2022/10/29 15:10:20;;;;;;;;;;;20.00;99.90;;;;;;2603414;54;19945;31
2022/10/29 15:12:53;;;;;;;;;;;20.00;99.90;;;;;;2603735;54;19930;31
2022/10/29 15:15:29;;;;;;;;;;;20.00;99.90;;;;;;2603385;54;19946;31
2022/10/29 15:18:02;;;;;;;;;;;19.90;99.90;;;;;;2603781;54;19941;31
2022/10/29 15:20:37;;;;;;;;;;;19.90;99.90;;;;;;2603609;54;19935;31
2022/10/29 15:23:19;;;;;;;;;;;19.80;99.90;;;;;;2622023;46;20796;31
2022/10/29 15:25:54;;;;;;;;;;;19.70;99.90;;;;;;2622244;46;19939;31